sensor_id;sensor_type;location;lat;lon;timestamp;P1;durP1;ratioP1;P2;durP2;ratioP2
30818;SDS011;17546;42.674;23.284;2023-08-24T00:01:20;20.48;;;8.93;;
30818;SDS011;17546;42.674;23.284;2023-08-24T00:03:45;14.73;;;9.40;;
30818;SDS011;17546;42.674;23.284;2023-08-24T00:06:11;17.20;;;9.27;;
30818;SDS011;17546;42.674;23.284;2023-08-24T00:08:37;18.27;;;9.35;;
30818;SDS011;17546;42.674;23.284;2023-08-24T00:11:02;14.45;;;9.07;;
30818;SDS011;17546;42.674;23.284;2023-08-24T00:13:28;12.50;;;8.98;;
30818;SDS011;17546;42.674;23.284;2023-08-24T00:15:53;16.17;;;9.20;;
30818;SDS011;17546;42.674;23.284;2023-08-24T00:18:19;17.48;;;9.52;;
30818;SDS011;17546;42.674;23.284;2023-08-24T00:20:46;11.65;;;8.95;;
30818;SDS011;17546;42.674;23.284;2023-08-24T00:23:12;11.85;;;8.98;;
30818;SDS011;17546;42.674;23.284;2023-08-24T00:25:38;19.13;;;9.38;;
30818;SDS011;17546;42.674;23.284;2023-08-24T00:28:06;13.18;;;9.10;;
30818;SDS011;17546;42.674;23.284;2023-08-24T00:30:31;15.25;;;9.55;;
30818;SDS011;17546;42.674;23.284;2023-08-24T00:32:57;12.38;;;9.05;;
30818;SDS011;17546;42.674;23.284;2023-08-24T00:35:22;14.43;;;9.35;;
30818;SDS011;17546;42.674;23.284;2023-08-24T00:37:47;14.48;;;9.25;;
30818;SDS011;17546;42.674;23.284;2023-08-24T00:40:13;10.82;;;8.40;;
30818;SDS011;17546;42.674;23.284;2023-08-24T00:42:42;17.35;;;9.50;;
30818;SDS011;17546;42.674;23.284;2023-08-24T00:45:10;15.88;;;9.68;;
30818;SDS011;17546;42.674;23.284;2023-08-24T00:47:37;16.75;;;9.07;;
30818;SDS011;17546;42.674;23.284;2023-08-24T00:50:05;13.45;;;9.32;;
30818;SDS011;17546;42.674;23.284;2023-08-24T00:52:35;17.33;;;8.90;;
30818;SDS011;17546;42.674;23.284;2023-08-24T00:55:02;28.35;;;9.55;;
30818;SDS011;17546;42.674;23.284;2023-08-24T00:57:29;17.63;;;9.35;;
30818;SDS011;17546;42.674;23.284;2023-08-24T00:59:55;14.73;;;9.45;;
30818;SDS011;17546;42.674;23.284;2023-08-24T01:02:21;15.05;;;8.88;;
30818;SDS011;17546;42.674;23.284;2023-08-24T01:04:47;13.73;;;9.00;;
30818;SDS011;17546;42.674;23.284;2023-08-24T01:07:13;14.88;;;9.15;;
30818;SDS011;17546;42.674;23.284;2023-08-24T01:09:40;14.88;;;9.45;;
30818;SDS011;17546;42.674;23.284;2023-08-24T01:12:11;16.30;;;9.30;;
30818;SDS011;17546;42.674;23.284;2023-08-24T01:17:22;12.27;;;9.13;;
30818;SDS011;17546;42.674;23.284;2023-08-24T01:19:52;12.10;;;9.13;;
30818;SDS011;17546;42.674;23.284;2023-08-24T01:22:41;12.52;;;8.82;;
30818;SDS011;17546;42.674;23.284;2023-08-24T01:25:34;17.88;;;9.02;;
30818;SDS011;17546;42.674;23.284;2023-08-24T01:28:05;12.75;;;9.10;;
30818;SDS011;17546;42.674;23.284;2023-08-24T01:30:31;14.68;;;8.95;;
30818;SDS011;17546;42.674;23.284;2023-08-24T01:32:56;13.05;;;9.43;;
30818;SDS011;17546;42.674;23.284;2023-08-24T01:35:22;17.27;;;9.02;;
30818;SDS011;17546;42.674;23.284;2023-08-24T01:37:47;14.40;;;9.00;;
30818;SDS011;17546;42.674;23.284;2023-08-24T01:40:15;15.77;;;9.48;;
30818;SDS011;17546;42.674;23.284;2023-08-24T01:43:01;16.70;;;9.90;;
30818;SDS011;17546;42.674;23.284;2023-08-24T01:45:31;15.40;;;9.57;;
30818;SDS011;17546;42.674;23.284;2023-08-24T01:47:58;16.27;;;10.35;;
30818;SDS011;17546;42.674;23.284;2023-08-24T01:50:27;18.30;;;9.63;;
30818;SDS011;17546;42.674;23.284;2023-08-24T01:52:54;18.83;;;9.93;;
30818;SDS011;17546;42.674;23.284;2023-08-24T01:55:20;13.15;;;10.18;;
30818;SDS011;17546;42.674;23.284;2023-08-24T01:57:46;15.07;;;10.20;;
30818;SDS011;17546;42.674;23.284;2023-08-24T02:00:11;13.13;;;9.50;;
30818;SDS011;17546;42.674;23.284;2023-08-24T02:02:37;13.80;;;9.93;;
30818;SDS011;17546;42.674;23.284;2023-08-24T02:05:03;15.85;;;9.90;;
30818;SDS011;17546;42.674;23.284;2023-08-24T02:07:29;16.02;;;10.35;;
30818;SDS011;17546;42.674;23.284;2023-08-24T02:09:55;16.70;;;10.45;;
30818;SDS011;17546;42.674;23.284;2023-08-24T02:12:21;15.15;;;10.43;;
30818;SDS011;17546;42.674;23.284;2023-08-24T02:14:46;15.18;;;10.88;;
30818;SDS011;17546;42.674;23.284;2023-08-24T02:17:12;20.02;;;10.07;;
30818;SDS011;17546;42.674;23.284;2023-08-24T02:19:39;17.88;;;9.80;;
30818;SDS011;17546;42.674;23.284;2023-08-24T02:22:06;20.77;;;10.70;;
30818;SDS011;17546;42.674;23.284;2023-08-24T02:24:32;22.27;;;12.10;;
30818;SDS011;17546;42.674;23.284;2023-08-24T02:26:57;17.80;;;12.27;;
30818;SDS011;17546;42.674;23.284;2023-08-24T02:29:23;25.90;;;16.92;;
30818;SDS011;17546;42.674;23.284;2023-08-24T02:31:49;40.45;;;19.63;;
30818;SDS011;17546;42.674;23.284;2023-08-24T02:34:15;52.80;;;27.42;;
30818;SDS011;17546;42.674;23.284;2023-08-24T02:36:41;69.03;;;35.25;;
30818;SDS011;17546;42.674;23.284;2023-08-24T02:39:06;63.10;;;33.58;;
30818;SDS011;17546;42.674;23.284;2023-08-24T02:41:32;53.65;;;28.48;;
30818;SDS011;17546;42.674;23.284;2023-08-24T02:43:58;44.17;;;26.70;;
30818;SDS011;17546;42.674;23.284;2023-08-24T02:46:24;48.22;;;23.90;;
30818;SDS011;17546;42.674;23.284;2023-08-24T02:48:49;44.40;;;22.67;;
30818;SDS011;17546;42.674;23.284;2023-08-24T02:51:15;43.40;;;21.50;;
30818;SDS011;17546;42.674;23.284;2023-08-24T02:53:41;34.70;;;19.85;;
30818;SDS011;17546;42.674;23.284;2023-08-24T02:56:06;28.25;;;16.23;;
30818;SDS011;17546;42.674;23.284;2023-08-24T02:58:31;35.38;;;18.38;;
30818;SDS011;17546;42.674;23.284;2023-08-24T03:00:57;33.33;;;17.85;;
30818;SDS011;17546;42.674;23.284;2023-08-24T03:03:25;28.85;;;17.60;;
30818;SDS011;17546;42.674;23.284;2023-08-24T03:05:52;28.85;;;16.60;;
30818;SDS011;17546;42.674;23.284;2023-08-24T03:08:18;27.17;;;16.75;;
30818;SDS011;17546;42.674;23.284;2023-08-24T03:10:43;29.67;;;17.30;;
30818;SDS011;17546;42.674;23.284;2023-08-24T03:13:08;34.58;;;18.95;;
30818;SDS011;17546;42.674;23.284;2023-08-24T03:15:34;36.20;;;20.77;;
30818;SDS011;17546;42.674;23.284;2023-08-24T03:18:00;36.83;;;22.20;;
30818;SDS011;17546;42.674;23.284;2023-08-24T03:20:26;36.97;;;21.75;;
30818;SDS011;17546;42.674;23.284;2023-08-24T03:22:51;39.85;;;25.23;;
30818;SDS011;17546;42.674;23.284;2023-08-24T03:25:16;41.83;;;25.73;;
30818;SDS011;17546;42.674;23.284;2023-08-24T03:27:42;42.70;;;22.92;;
30818;SDS011;17546;42.674;23.284;2023-08-24T03:30:07;47.92;;;25.33;;
30818;SDS011;17546;42.674;23.284;2023-08-24T03:32:33;47.28;;;27.17;;
30818;SDS011;17546;42.674;23.284;2023-08-24T03:34:59;50.28;;;27.52;;
30818;SDS011;17546;42.674;23.284;2023-08-24T03:37:25;48.30;;;25.13;;
30818;SDS011;17546;42.674;23.284;2023-08-24T03:39:50;47.83;;;26.60;;
30818;SDS011;17546;42.674;23.284;2023-08-24T03:42:16;28.55;;;19.38;;
30818;SDS011;17546;42.674;23.284;2023-08-24T03:44:41;35.72;;;18.92;;
30818;SDS011;17546;42.674;23.284;2023-08-24T03:47:07;38.08;;;21.10;;
30818;SDS011;17546;42.674;23.284;2023-08-24T03:49:32;45.25;;;20.30;;
30818;SDS011;17546;42.674;23.284;2023-08-24T03:51:57;38.28;;;20.98;;
30818;SDS011;17546;42.674;23.284;2023-08-24T03:54:23;41.47;;;20.75;;
30818;SDS011;17546;42.674;23.284;2023-08-24T03:56:48;38.00;;;20.48;;
30818;SDS011;17546;42.674;23.284;2023-08-24T03:59:13;38.13;;;22.15;;
30818;SDS011;17546;42.674;23.284;2023-08-24T04:01:39;47.70;;;24.63;;
30818;SDS011;17546;42.674;23.284;2023-08-24T04:04:05;50.88;;;26.83;;
30818;SDS011;17546;42.674;23.284;2023-08-24T04:06:30;48.80;;;25.85;;
30818;SDS011;17546;42.674;23.284;2023-08-24T04:08:55;56.17;;;27.63;;
30818;SDS011;17546;42.674;23.284;2023-08-24T04:11:21;55.30;;;27.20;;
30818;SDS011;17546;42.674;23.284;2023-08-24T04:13:46;50.83;;;25.83;;
30818;SDS011;17546;42.674;23.284;2023-08-24T04:16:11;52.17;;;27.05;;
30818;SDS011;17546;42.674;23.284;2023-08-24T04:18:37;52.35;;;25.48;;
30818;SDS011;17546;42.674;23.284;2023-08-24T04:21:02;51.90;;;27.23;;
30818;SDS011;17546;42.674;23.284;2023-08-24T04:23:28;52.60;;;27.42;;
30818;SDS011;17546;42.674;23.284;2023-08-24T04:25:53;57.22;;;28.38;;
30818;SDS011;17546;42.674;23.284;2023-08-24T04:28:19;50.67;;;26.88;;
30818;SDS011;17546;42.674;23.284;2023-08-24T04:30:55;53.58;;;27.45;;
30818;SDS011;17546;42.674;23.284;2023-08-24T04:33:22;57.33;;;27.55;;
30818;SDS011;17546;42.674;23.284;2023-08-24T04:35:48;54.78;;;27.70;;
30818;SDS011;17546;42.674;23.284;2023-08-24T04:38:14;65.30;;;28.08;;
30818;SDS011;17546;42.674;23.284;2023-08-24T04:43:11;55.60;;;26.10;;
30818;SDS011;17546;42.674;23.284;2023-08-24T04:45:37;46.50;;;25.25;;
30818;SDS011;17546;42.674;23.284;2023-08-24T04:48:02;45.00;;;24.08;;
30818;SDS011;17546;42.674;23.284;2023-08-24T04:50:28;63.45;;;27.30;;
30818;SDS011;17546;42.674;23.284;2023-08-24T04:52:53;76.75;;;35.85;;
30818;SDS011;17546;42.674;23.284;2023-08-24T04:55:18;56.50;;;26.33;;
30818;SDS011;17546;42.674;23.284;2023-08-24T04:57:44;45.88;;;21.55;;
30818;SDS011;17546;42.674;23.284;2023-08-24T05:00:09;50.80;;;22.58;;
30818;SDS011;17546;42.674;23.284;2023-08-24T05:02:41;51.97;;;22.42;;
30818;SDS011;17546;42.674;23.284;2023-08-24T05:05:07;51.63;;;22.67;;
30818;SDS011;17546;42.674;23.284;2023-08-24T05:07:35;56.70;;;29.33;;
30818;SDS011;17546;42.674;23.284;2023-08-24T05:10:00;100.13;;;68.43;;
30818;SDS011;17546;42.674;23.284;2023-08-24T05:12:26;51.17;;;23.98;;
30818;SDS011;17546;42.674;23.284;2023-08-24T05:14:51;46.30;;;24.70;;
30818;SDS011;17546;42.674;23.284;2023-08-24T05:17:18;97.70;;;66.75;;
30818;SDS011;17546;42.674;23.284;2023-08-24T05:19:45;52.40;;;26.30;;
30818;SDS011;17546;42.674;23.284;2023-08-24T05:22:10;58.13;;;29.70;;
30818;SDS011;17546;42.674;23.284;2023-08-24T05:24:35;75.60;;;31.48;;
30818;SDS011;17546;42.674;23.284;2023-08-24T05:27:01;55.13;;;30.88;;
30818;SDS011;17546;42.674;23.284;2023-08-24T05:29:26;72.68;;;31.13;;
30818;SDS011;17546;42.674;23.284;2023-08-24T05:31:52;58.67;;;25.50;;
30818;SDS011;17546;42.674;23.284;2023-08-24T05:34:17;62.05;;;28.95;;
30818;SDS011;17546;42.674;23.284;2023-08-24T05:36:42;56.92;;;25.70;;
30818;SDS011;17546;42.674;23.284;2023-08-24T05:39:08;51.72;;;25.88;;
30818;SDS011;17546;42.674;23.284;2023-08-24T05:41:33;43.33;;;24.45;;
30818;SDS011;17546;42.674;23.284;2023-08-24T05:43:59;48.60;;;24.15;;
30818;SDS011;17546;42.674;23.284;2023-08-24T05:46:24;49.30;;;22.83;;
30818;SDS011;17546;42.674;23.284;2023-08-24T05:48:50;45.08;;;22.75;;
30818;SDS011;17546;42.674;23.284;2023-08-24T05:51:15;42.47;;;21.80;;
30818;SDS011;17546;42.674;23.284;2023-08-24T05:53:40;40.92;;;20.08;;
30818;SDS011;17546;42.674;23.284;2023-08-24T05:56:06;42.33;;;22.75;;
30818;SDS011;17546;42.674;23.284;2023-08-24T05:58:31;50.30;;;23.83;;
30818;SDS011;17546;42.674;23.284;2023-08-24T06:01:00;59.22;;;27.08;;
30818;SDS011;17546;42.674;23.284;2023-08-24T06:03:25;55.33;;;26.67;;
30818;SDS011;17546;42.674;23.284;2023-08-24T06:05:51;55.83;;;26.00;;
30818;SDS011;17546;42.674;23.284;2023-08-24T06:08:17;55.38;;;24.38;;
30818;SDS011;17546;42.674;23.284;2023-08-24T06:10:42;48.45;;;22.63;;
30818;SDS011;17546;42.674;23.284;2023-08-24T06:13:08;53.10;;;22.02;;
30818;SDS011;17546;42.674;23.284;2023-08-24T06:15:33;52.50;;;35.28;;
30818;SDS011;17546;42.674;23.284;2023-08-24T06:17:59;42.83;;;22.13;;
30818;SDS011;17546;42.674;23.284;2023-08-24T06:20:25;46.60;;;21.42;;
30818;SDS011;17546;42.674;23.284;2023-08-24T06:22:50;43.75;;;21.38;;
30818;SDS011;17546;42.674;23.284;2023-08-24T06:25:15;50.80;;;21.50;;
30818;SDS011;17546;42.674;23.284;2023-08-24T06:27:44;46.15;;;22.92;;
30818;SDS011;17546;42.674;23.284;2023-08-24T06:30:09;43.60;;;20.80;;
30818;SDS011;17546;42.674;23.284;2023-08-24T06:32:35;41.70;;;19.70;;
30818;SDS011;17546;42.674;23.284;2023-08-24T06:35:01;48.45;;;20.70;;
30818;SDS011;17546;42.674;23.284;2023-08-24T06:37:28;38.83;;;16.73;;
30818;SDS011;17546;42.674;23.284;2023-08-24T06:39:53;29.23;;;14.90;;
30818;SDS011;17546;42.674;23.284;2023-08-24T06:42:19;28.23;;;15.35;;
30818;SDS011;17546;42.674;23.284;2023-08-24T06:44:44;29.77;;;16.90;;
30818;SDS011;17546;42.674;23.284;2023-08-24T06:47:10;25.38;;;15.48;;
30818;SDS011;17546;42.674;23.284;2023-08-24T06:49:35;39.28;;;15.57;;
30818;SDS011;17546;42.674;23.284;2023-08-24T06:52:01;28.05;;;15.40;;
30818;SDS011;17546;42.674;23.284;2023-08-24T06:54:26;25.05;;;14.77;;
30818;SDS011;17546;42.674;23.284;2023-08-24T06:56:51;23.63;;;15.52;;
30818;SDS011;17546;42.674;23.284;2023-08-24T06:59:17;39.55;;;15.68;;
30818;SDS011;17546;42.674;23.284;2023-08-24T07:01:42;33.03;;;14.65;;
30818;SDS011;17546;42.674;23.284;2023-08-24T07:04:08;30.52;;;14.43;;
30818;SDS011;17546;42.674;23.284;2023-08-24T07:06:33;20.17;;;13.85;;
30818;SDS011;17546;42.674;23.284;2023-08-24T07:08:59;25.60;;;13.43;;
30818;SDS011;17546;42.674;23.284;2023-08-24T07:11:25;20.92;;;13.32;;
30818;SDS011;17546;42.674;23.284;2023-08-24T07:13:51;23.92;;;13.25;;
30818;SDS011;17546;42.674;23.284;2023-08-24T07:16:18;25.20;;;13.35;;
30818;SDS011;17546;42.674;23.284;2023-08-24T07:18:44;23.55;;;14.80;;
30818;SDS011;17546;42.674;23.284;2023-08-24T07:21:09;18.98;;;13.15;;
30818;SDS011;17546;42.674;23.284;2023-08-24T07:23:35;19.02;;;13.88;;
30818;SDS011;17546;42.674;23.284;2023-08-24T07:26:00;26.08;;;12.73;;
30818;SDS011;17546;42.674;23.284;2023-08-24T07:28:25;20.55;;;13.07;;
30818;SDS011;17546;42.674;23.284;2023-08-24T07:30:51;26.95;;;17.05;;
30818;SDS011;17546;42.674;23.284;2023-08-24T07:33:21;38.28;;;18.38;;
30818;SDS011;17546;42.674;23.284;2023-08-24T07:35:46;29.33;;;15.85;;
30818;SDS011;17546;42.674;23.284;2023-08-24T07:38:12;31.83;;;14.38;;
30818;SDS011;17546;42.674;23.284;2023-08-24T07:40:37;30.98;;;16.13;;
30818;SDS011;17546;42.674;23.284;2023-08-24T07:43:03;30.17;;;14.82;;
30818;SDS011;17546;42.674;23.284;2023-08-24T07:45:29;28.55;;;14.88;;
30818;SDS011;17546;42.674;23.284;2023-08-24T07:47:54;27.10;;;14.18;;
30818;SDS011;17546;42.674;23.284;2023-08-24T07:50:20;16.80;;;11.15;;
30818;SDS011;17546;42.674;23.284;2023-08-24T07:52:47;23.00;;;12.63;;
30818;SDS011;17546;42.674;23.284;2023-08-24T07:55:12;25.42;;;11.85;;
30818;SDS011;17546;42.674;23.284;2023-08-24T07:57:38;29.77;;;12.02;;
30818;SDS011;17546;42.674;23.284;2023-08-24T08:00:04;29.77;;;12.50;;
30818;SDS011;17546;42.674;23.284;2023-08-24T08:02:30;25.45;;;12.20;;
30818;SDS011;17546;42.674;23.284;2023-08-24T08:04:57;30.25;;;12.48;;
30818;SDS011;17546;42.674;23.284;2023-08-24T08:07:24;19.83;;;11.85;;
30818;SDS011;17546;42.674;23.284;2023-08-24T08:09:54;20.77;;;11.95;;
30818;SDS011;17546;42.674;23.284;2023-08-24T08:12:19;25.98;;;12.15;;
30818;SDS011;17546;42.674;23.284;2023-08-24T08:14:45;27.02;;;12.70;;
30818;SDS011;17546;42.674;23.284;2023-08-24T08:17:10;25.85;;;13.43;;
30818;SDS011;17546;42.674;23.284;2023-08-24T08:19:35;26.20;;;13.10;;
30818;SDS011;17546;42.674;23.284;2023-08-24T08:22:03;19.30;;;12.02;;
30818;SDS011;17546;42.674;23.284;2023-08-24T08:24:28;23.40;;;10.55;;
30818;SDS011;17546;42.674;23.284;2023-08-24T08:26:54;20.02;;;10.98;;
30818;SDS011;17546;42.674;23.284;2023-08-24T08:29:19;32.78;;;11.02;;
30818;SDS011;17546;42.674;23.284;2023-08-24T08:31:45;20.90;;;10.85;;
30818;SDS011;17546;42.674;23.284;2023-08-24T08:34:11;23.52;;;11.15;;
30818;SDS011;17546;42.674;23.284;2023-08-24T08:36:36;36.95;;;10.77;;
30818;SDS011;17546;42.674;23.284;2023-08-24T08:39:02;26.38;;;10.80;;
30818;SDS011;17546;42.674;23.284;2023-08-24T08:41:30;23.50;;;10.95;;
30818;SDS011;17546;42.674;23.284;2023-08-24T08:44:04;19.38;;;10.95;;
30818;SDS011;17546;42.674;23.284;2023-08-24T08:46:32;19.52;;;10.90;;
30818;SDS011;17546;42.674;23.284;2023-08-24T08:48:58;21.38;;;9.98;;
30818;SDS011;17546;42.674;23.284;2023-08-24T08:51:25;20.75;;;9.98;;
30818;SDS011;17546;42.674;23.284;2023-08-24T08:53:52;20.58;;;9.88;;
30818;SDS011;17546;42.674;23.284;2023-08-24T08:56:17;18.17;;;9.35;;
30818;SDS011;17546;42.674;23.284;2023-08-24T08:58:42;19.48;;;10.45;;
30818;SDS011;17546;42.674;23.284;2023-08-24T09:01:11;20.83;;;9.75;;
30818;SDS011;17546;42.674;23.284;2023-08-24T09:03:37;19.27;;;9.73;;
30818;SDS011;17546;42.674;23.284;2023-08-24T09:06:04;20.63;;;9.57;;
30818;SDS011;17546;42.674;23.284;2023-08-24T09:08:29;18.33;;;9.73;;
30818;SDS011;17546;42.674;23.284;2023-08-24T09:11:00;20.58;;;9.90;;
30818;SDS011;17546;42.674;23.284;2023-08-24T09:13:26;14.43;;;10.45;;
30818;SDS011;17546;42.674;23.284;2023-08-24T09:15:51;19.63;;;9.82;;
30818;SDS011;17546;42.674;23.284;2023-08-24T09:18:20;21.50;;;10.32;;
30818;SDS011;17546;42.674;23.284;2023-08-24T09:20:46;19.13;;;10.30;;
30818;SDS011;17546;42.674;23.284;2023-08-24T09:23:18;18.13;;;10.50;;
30818;SDS011;17546;42.674;23.284;2023-08-24T09:25:47;14.10;;;10.88;;
30818;SDS011;17546;42.674;23.284;2023-08-24T09:28:13;24.83;;;10.77;;
30818;SDS011;17546;42.674;23.284;2023-08-24T09:30:38;14.45;;;10.38;;
30818;SDS011;17546;42.674;23.284;2023-08-24T09:33:08;21.20;;;10.55;;
30818;SDS011;17546;42.674;23.284;2023-08-24T09:35:35;16.42;;;11.43;;
30818;SDS011;17546;42.674;23.284;2023-08-24T09:38:14;21.77;;;10.90;;
30818;SDS011;17546;42.674;23.284;2023-08-24T09:40:44;18.52;;;10.25;;
30818;SDS011;17546;42.674;23.284;2023-08-24T09:43:12;14.90;;;10.50;;
30818;SDS011;17546;42.674;23.284;2023-08-24T09:45:38;17.83;;;10.65;;
30818;SDS011;17546;42.674;23.284;2023-08-24T09:48:12;17.98;;;11.38;;
30818;SDS011;17546;42.674;23.284;2023-08-24T09:50:37;14.85;;;10.20;;
30818;SDS011;17546;42.674;23.284;2023-08-24T09:53:03;18.67;;;10.25;;
30818;SDS011;17546;42.674;23.284;2023-08-24T09:55:29;17.80;;;9.88;;
30818;SDS011;17546;42.674;23.284;2023-08-24T09:58:01;52.90;;;42.65;;
30818;SDS011;17546;42.674;23.284;2023-08-24T10:00:29;18.40;;;10.65;;
30818;SDS011;17546;42.674;23.284;2023-08-24T10:02:55;15.15;;;10.70;;
30818;SDS011;17546;42.674;23.284;2023-08-24T10:05:25;22.30;;;9.88;;
30818;SDS011;17546;42.674;23.284;2023-08-24T10:07:53;18.10;;;9.18;;
30818;SDS011;17546;42.674;23.284;2023-08-24T10:10:21;12.77;;;8.98;;
30818;SDS011;17546;42.674;23.284;2023-08-24T10:12:53;11.57;;;9.48;;
30818;SDS011;17546;42.674;23.284;2023-08-24T10:15:26;21.17;;;9.77;;
30818;SDS011;17546;42.674;23.284;2023-08-24T10:17:51;21.30;;;8.95;;
30818;SDS011;17546;42.674;23.284;2023-08-24T10:20:19;22.83;;;8.45;;
30818;SDS011;17546;42.674;23.284;2023-08-24T10:22:46;16.40;;;8.75;;
30818;SDS011;17546;42.674;23.284;2023-08-24T10:25:12;27.55;;;9.27;;
30818;SDS011;17546;42.674;23.284;2023-08-24T10:27:39;17.55;;;8.20;;
30818;SDS011;17546;42.674;23.284;2023-08-24T10:30:09;18.92;;;9.38;;
30818;SDS011;17546;42.674;23.284;2023-08-24T10:32:42;19.27;;;8.90;;
30818;SDS011;17546;42.674;23.284;2023-08-24T10:35:10;16.65;;;8.18;;
30818;SDS011;17546;42.674;23.284;2023-08-24T10:37:36;17.27;;;9.32;;
30818;SDS011;17546;42.674;23.284;2023-08-24T10:40:02;15.43;;;8.80;;
30818;SDS011;17546;42.674;23.284;2023-08-24T10:42:42;11.80;;;8.98;;
30818;SDS011;17546;42.674;23.284;2023-08-24T10:45:08;13.63;;;9.18;;
30818;SDS011;17546;42.674;23.284;2023-08-24T10:47:34;17.35;;;8.90;;
30818;SDS011;17546;42.674;23.284;2023-08-24T10:50:12;16.45;;;8.73;;
30818;SDS011;17546;42.674;23.284;2023-08-24T10:52:38;16.13;;;8.30;;
30818;SDS011;17546;42.674;23.284;2023-08-24T10:55:24;11.63;;;8.07;;
30818;SDS011;17546;42.674;23.284;2023-08-24T10:57:55;17.27;;;8.48;;
30818;SDS011;17546;42.674;23.284;2023-08-24T11:00:27;24.00;;;8.98;;
30818;SDS011;17546;42.674;23.284;2023-08-24T11:02:56;22.02;;;9.95;;
30818;SDS011;17546;42.674;23.284;2023-08-24T11:05:27;20.17;;;9.63;;
30818;SDS011;17546;42.674;23.284;2023-08-24T11:07:56;26.15;;;9.90;;
30818;SDS011;17546;42.674;23.284;2023-08-24T11:13:14;17.88;;;9.85;;
30818;SDS011;17546;42.674;23.284;2023-08-24T11:15:48;21.95;;;10.15;;
30818;SDS011;17546;42.674;23.284;2023-08-24T11:18:27;19.48;;;9.88;;
30818;SDS011;17546;42.674;23.284;2023-08-24T11:20:54;22.63;;;8.57;;
30818;SDS011;17546;42.674;23.284;2023-08-24T11:23:21;18.73;;;8.90;;
30818;SDS011;17546;42.674;23.284;2023-08-24T11:25:49;20.38;;;8.48;;
30818;SDS011;17546;42.674;23.284;2023-08-24T11:28:20;19.00;;;8.73;;
30818;SDS011;17546;42.674;23.284;2023-08-24T11:30:46;24.63;;;8.90;;
30818;SDS011;17546;42.674;23.284;2023-08-24T11:33:11;22.17;;;9.07;;
30818;SDS011;17546;42.674;23.284;2023-08-24T11:35:40;19.13;;;8.13;;
30818;SDS011;17546;42.674;23.284;2023-08-24T11:38:07;22.27;;;8.02;;
30818;SDS011;17546;42.674;23.284;2023-08-24T11:40:33;22.45;;;8.70;;
30818;SDS011;17546;42.674;23.284;2023-08-24T11:42:58;18.88;;;7.50;;
30818;SDS011;17546;42.674;23.284;2023-08-24T11:45:24;11.15;;;7.80;;
30818;SDS011;17546;42.674;23.284;2023-08-24T11:47:55;19.40;;;8.57;;
30818;SDS011;17546;42.674;23.284;2023-08-24T11:50:22;20.52;;;8.60;;
30818;SDS011;17546;42.674;23.284;2023-08-24T11:52:48;22.25;;;8.55;;
30818;SDS011;17546;42.674;23.284;2023-08-24T11:55:14;20.30;;;8.52;;
30818;SDS011;17546;42.674;23.284;2023-08-24T11:57:39;18.52;;;8.30;;
30818;SDS011;17546;42.674;23.284;2023-08-24T12:00:07;23.45;;;8.73;;
30818;SDS011;17546;42.674;23.284;2023-08-24T12:02:34;17.85;;;8.27;;
30818;SDS011;17546;42.674;23.284;2023-08-24T12:05:00;15.95;;;8.77;;
30818;SDS011;17546;42.674;23.284;2023-08-24T12:07:27;19.02;;;8.43;;
30818;SDS011;17546;42.674;23.284;2023-08-24T12:09:53;18.83;;;8.40;;
30818;SDS011;17546;42.674;23.284;2023-08-24T12:12:19;17.20;;;8.93;;
30818;SDS011;17546;42.674;23.284;2023-08-24T12:14:46;13.93;;;8.52;;
30818;SDS011;17546;42.674;23.284;2023-08-24T12:17:13;21.20;;;8.43;;
30818;SDS011;17546;42.674;23.284;2023-08-24T12:19:45;24.25;;;8.45;;
30818;SDS011;17546;42.674;23.284;2023-08-24T12:22:22;24.92;;;8.90;;
30818;SDS011;17546;42.674;23.284;2023-08-24T12:24:47;18.52;;;8.98;;
30818;SDS011;17546;42.674;23.284;2023-08-24T12:27:20;27.90;;;9.27;;
30818;SDS011;17546;42.674;23.284;2023-08-24T12:29:47;23.30;;;8.90;;
30818;SDS011;17546;42.674;23.284;2023-08-24T12:32:12;18.98;;;9.00;;
30818;SDS011;17546;42.674;23.284;2023-08-24T12:34:40;29.02;;;8.77;;
30818;SDS011;17546;42.674;23.284;2023-08-24T12:37:05;17.52;;;8.60;;
30818;SDS011;17546;42.674;23.284;2023-08-24T12:39:34;16.80;;;8.13;;
30818;SDS011;17546;42.674;23.284;2023-08-24T12:42:01;12.23;;;7.97;;
30818;SDS011;17546;42.674;23.284;2023-08-24T12:44:27;14.60;;;7.63;;
30818;SDS011;17546;42.674;23.284;2023-08-24T12:46:53;13.15;;;7.72;;
30818;SDS011;17546;42.674;23.284;2023-08-24T12:49:18;15.77;;;8.05;;
30818;SDS011;17546;42.674;23.284;2023-08-24T12:51:44;16.17;;;8.20;;
30818;SDS011;17546;42.674;23.284;2023-08-24T12:54:09;11.82;;;8.43;;
30818;SDS011;17546;42.674;23.284;2023-08-24T12:56:34;12.82;;;8.60;;
30818;SDS011;17546;42.674;23.284;2023-08-24T12:59:00;24.08;;;10.38;;
30818;SDS011;17546;42.674;23.284;2023-08-24T13:01:26;24.38;;;10.15;;
30818;SDS011;17546;42.674;23.284;2023-08-24T13:03:51;20.55;;;9.50;;
30818;SDS011;17546;42.674;23.284;2023-08-24T13:06:17;20.65;;;9.48;;
30818;SDS011;17546;42.674;23.284;2023-08-24T13:08:42;18.63;;;8.30;;
30818;SDS011;17546;42.674;23.284;2023-08-24T13:11:09;18.20;;;8.85;;
30818;SDS011;17546;42.674;23.284;2023-08-24T13:13:36;19.48;;;8.80;;
30818;SDS011;17546;42.674;23.284;2023-08-24T13:16:01;18.88;;;9.15;;
30818;SDS011;17546;42.674;23.284;2023-08-24T13:18:27;18.88;;;10.52;;
30818;SDS011;17546;42.674;23.284;2023-08-24T13:20:52;19.58;;;9.80;;
30818;SDS011;17546;42.674;23.284;2023-08-24T13:23:18;19.25;;;10.13;;
30818;SDS011;17546;42.674;23.284;2023-08-24T13:25:43;19.00;;;9.65;;
30818;SDS011;17546;42.674;23.284;2023-08-24T13:28:08;27.83;;;9.80;;
30818;SDS011;17546;42.674;23.284;2023-08-24T13:30:34;17.75;;;9.48;;
30818;SDS011;17546;42.674;23.284;2023-08-24T13:32:59;22.33;;;9.45;;
30818;SDS011;17546;42.674;23.284;2023-08-24T13:35:25;14.20;;;8.98;;
30818;SDS011;17546;42.674;23.284;2023-08-24T13:37:51;18.42;;;9.43;;
30818;SDS011;17546;42.674;23.284;2023-08-24T13:40:16;20.88;;;9.35;;
30818;SDS011;17546;42.674;23.284;2023-08-24T13:42:42;16.48;;;8.70;;
30818;SDS011;17546;42.674;23.284;2023-08-24T13:45:07;17.90;;;9.77;;
30818;SDS011;17546;42.674;23.284;2023-08-24T13:47:33;24.58;;;10.40;;
30818;SDS011;17546;42.674;23.284;2023-08-24T13:49:58;21.33;;;9.88;;
30818;SDS011;17546;42.674;23.284;2023-08-24T13:52:24;17.25;;;9.40;;
30818;SDS011;17546;42.674;23.284;2023-08-24T13:54:49;24.60;;;9.63;;
30818;SDS011;17546;42.674;23.284;2023-08-24T13:57:14;21.20;;;10.05;;
30818;SDS011;17546;42.674;23.284;2023-08-24T13:59:40;17.90;;;9.60;;
30818;SDS011;17546;42.674;23.284;2023-08-24T14:02:05;31.67;;;9.43;;
30818;SDS011;17546;42.674;23.284;2023-08-24T14:04:31;19.67;;;9.95;;
30818;SDS011;17546;42.674;23.284;2023-08-24T14:06:57;21.50;;;10.25;;
30818;SDS011;17546;42.674;23.284;2023-08-24T14:09:24;19.88;;;10.20;;
30818;SDS011;17546;42.674;23.284;2023-08-24T14:11:50;21.23;;;10.65;;
30818;SDS011;17546;42.674;23.284;2023-08-24T14:14:15;17.60;;;9.90;;
30818;SDS011;17546;42.674;23.284;2023-08-24T14:16:40;29.73;;;9.52;;
30818;SDS011;17546;42.674;23.284;2023-08-24T14:19:06;22.27;;;11.48;;